Time;durP1;ratioP1;P1;durP2;ratioP2;P2;SDS_P1;SDS_P2;PMS_P1;PMS_P2;Temp;Humidity;BMP_temperature;BMP_pressure;BME280_temperature;BME280_humidity;BME280_pressure;Samples;Min_cycle;Max_cycle;Signal;HPM_P1;HPM_P2
2021/12/26 00:00:19;;;;;;;34.83;13.63;;;;;;;;;;5061447;28;20044;-74
2021/12/26 00:02:45;;;;;;;38.58;14.38;;;;;;;;;;5039856;28;20083;-74
2021/12/26 00:05:10;;;;;;;42.85;14.63;;;;;;;;;;5054214;28;20521;-74
2021/12/26 00:07:36;;;;;;;36.50;12.98;;;;;;;;;;5048746;28;20407;-74
2021/12/26 00:10:04;;;;;;;33.78;13.52;;;;;;;;;;5036256;28;20049;-74
2021/12/26 00:12:29;;;;;;;38.72;13.27;;;;;;;;;;5040451;28;20040;-75
2021/12/26 00:14:55;;;;;;;37.97;14.68;;;;;;;;;;5038020;28;20037;-74
2021/12/26 00:17:21;;;;;;;32.63;12.93;;;;;;;;;;5040955;28;20052;-75
2021/12/26 00:19:47;;;;;;;31.38;12.00;;;;;;;;;;5050035;28;20048;-75
2021/12/26 00:22:12;;;;;;;37.20;13.27;;;;;;;;;;5046672;28;20824;-75
2021/12/26 00:24:38;;;;;;;33.17;12.27;;;;;;;;;;5047477;28;20534;-75
2021/12/26 00:27:03;;;;;;;34.38;12.18;;;;;;;;;;5060773;28;20041;-75
2021/12/26 00:29:29;;;;;;;34.28;13.80;;;;;;;;;;5053350;28;20044;-75
2021/12/26 00:31:54;;;;;;;34.95;14.32;;;;;;;;;;5042097;28;20164;-74
2021/12/26 00:34:19;;;;;;;37.75;14.90;;;;;;;;;;5045909;28;20170;-74
2021/12/26 00:36:45;;;;;;;35.63;14.23;;;;;;;;;;5054223;28;20510;-74
2021/12/26 00:39:11;;;;;;;37.25;13.43;;;;;;;;;;5061031;28;20036;-75
2021/12/26 00:41:39;;;;;;;36.85;13.30;;;;;;;;;;5065385;28;20033;-75
2021/12/26 00:44:06;;;;;;;38.05;14.38;;;;;;;;;;5055544;28;20040;-75
2021/12/26 00:46:31;;;;;;;35.35;13.07;;;;;;;;;;5036730;28;20045;-75
2021/12/26 00:48:56;;;;;;;37.05;13.77;;;;;;;;;;5058606;28;20074;-75
2021/12/26 00:51:22;;;;;;;32.58;13.07;;;;;;;;;;5057577;28;20055;-74
2021/12/26 00:53:47;;;;;;;35.58;13.02;;;;;;;;;;5058586;28;20422;-75
2021/12/26 00:56:12;;;;;;;37.10;13.43;;;;;;;;;;5060486;28;20425;-74
2021/12/26 00:58:38;;;;;;;36.13;13.30;;;;;;;;;;5059170;28;20037;-74
2021/12/26 01:01:03;;;;;;;36.15;13.60;;;;;;;;;;5055711;28;20743;-75
2021/12/26 01:03:29;;;;;;;37.25;14.00;;;;;;;;;;5056070;28;20097;-75
2021/12/26 01:05:56;;;;;;;35.00;12.68;;;;;;;;;;5066449;28;20157;-75
2021/12/26 01:08:29;;;;;;;30.15;12.70;;;;;;;;;;5059332;28;20127;-74
2021/12/26 01:11:34;;;;;;;35.45;14.05;;;;;;;;;;5056591;28;20046;-74
2021/12/26 01:14:01;;;;;;;38.28;14.60;;;;;;;;;;5056756;28;20040;-74
2021/12/26 01:16:28;;;;;;;35.13;13.48;;;;;;;;;;5059378;28;20087;-74
2021/12/26 01:19:00;;;;;;;34.60;13.25;;;;;;;;;;5059222;28;20490;-75
2021/12/26 01:21:26;;;;;;;33.30;12.50;;;;;;;;;;5039503;28;20048;-75
2021/12/26 01:23:58;;;;;;;32.05;12.82;;;;;;;;;;5051579;28;20098;-75
2021/12/26 01:26:25;;;;;;;35.67;13.50;;;;;;;;;;5047070;28;20070;-75
2021/12/26 01:28:51;;;;;;;36.75;13.95;;;;;;;;;;5050872;28;20094;-74
2021/12/26 01:31:19;;;;;;;31.98;13.80;;;;;;;;;;5057078;28;20037;-75
2021/12/26 01:33:51;;;;;;;35.03;13.75;;;;;;;;;;5055402;28;20032;-74
2021/12/26 01:36:17;;;;;;;34.70;13.75;;;;;;;;;;5053882;28;20124;-74
2021/12/26 01:38:42;;;;;;;37.15;12.90;;;;;;;;;;5050378;28;20115;-75
2021/12/26 01:41:10;;;;;;;39.30;14.50;;;;;;;;;;5050344;28;20586;-75
2021/12/26 01:43:41;;;;;;;31.73;12.68;;;;;;;;;;5048206;28;20127;-74
2021/12/26 01:46:06;;;;;;;33.78;13.60;;;;;;;;;;5034658;28;20033;-75
2021/12/26 01:48:32;;;;;;;37.20;14.95;;;;;;;;;;5037322;28;20476;-75
2021/12/26 01:50:58;;;;;;;35.88;13.73;;;;;;;;;;5047208;28;20127;-75
2021/12/26 01:53:26;;;;;;;37.45;14.38;;;;;;;;;;5042739;28;20140;-75
2021/12/26 01:55:54;;;;;;;33.83;12.75;;;;;;;;;;5035708;28;20106;-75
2021/12/26 01:58:23;;;;;;;34.45;12.48;;;;;;;;;;5040544;28;20105;-75
2021/12/26 02:00:53;;;;;;;33.33;13.50;;;;;;;;;;5041569;28;20099;-75
2021/12/26 02:03:18;;;;;;;30.08;11.30;;;;;;;;;;5039972;28;20045;-75
2021/12/26 02:05:44;;;;;;;34.75;14.23;;;;;;;;;;5040781;28;20411;-74
2021/12/26 02:08:10;;;;;;;35.45;14.73;;;;;;;;;;5042371;28;20418;-74
2021/12/26 02:10:35;;;;;;;35.03;13.40;;;;;;;;;;5057685;28;20044;-75
2021/12/26 02:13:01;;;;;;;36.38;15.20;;;;;;;;;;5052200;28;20033;-74
2021/12/26 02:15:27;;;;;;;35.22;13.50;;;;;;;;;;5031986;28;20075;-74
2021/12/26 02:17:52;;;;;;;35.38;13.88;;;;;;;;;;5029654;28;20052;-75
2021/12/26 02:20:37;;;;;;;30.23;12.45;;;;;;;;;;5045526;28;20036;-74
2021/12/26 02:23:14;;;;;;;40.47;14.85;;;;;;;;;;5048915;28;20565;-74
2021/12/26 02:28:12;;;;;;;42.97;15.40;;;;;;;;;;5050668;28;20818;-75
2021/12/26 02:30:38;;;;;;;34.40;14.10;;;;;;;;;;5051878;28;20406;-75
2021/12/26 02:33:07;;;;;;;30.70;13.07;;;;;;;;;;5050408;28;20506;-74
2021/12/26 02:35:33;;;;;;;31.50;12.40;;;;;;;;;;5050483;28;20039;-75
2021/12/26 02:37:59;;;;;;;34.65;14.93;;;;;;;;;;5037334;28;20519;-75
2021/12/26 02:40:24;;;;;;;36.60;14.07;;;;;;;;;;5039644;28;20175;-74
2021/12/26 02:42:50;;;;;;;34.58;13.43;;;;;;;;;;5046361;28;20024;-74
2021/12/26 02:45:15;;;;;;;34.15;14.65;;;;;;;;;;5041486;28;20063;-75
2021/12/26 02:47:47;;;;;;;36.70;14.88;;;;;;;;;;5037268;28;20057;-74
2021/12/26 02:50:27;;;;;;;34.80;14.35;;;;;;;;;;5039888;28;20170;-75
2021/12/26 02:52:55;;;;;;;37.42;13.95;;;;;;;;;;5053309;28;20072;-74
2021/12/26 02:55:21;;;;;;;31.65;12.07;;;;;;;;;;5048977;28;20037;-75
2021/12/26 02:57:48;;;;;;;36.50;14.73;;;;;;;;;;5047397;28;20499;-74
2021/12/26 03:00:16;;;;;;;31.80;14.20;;;;;;;;;;5038009;28;20045;-75
2021/12/26 03:02:43;;;;;;;33.95;13.77;;;;;;;;;;5054031;28;20036;-74
2021/12/26 03:05:09;;;;;;;35.08;13.55;;;;;;;;;;5048638;28;20372;-74
2021/12/26 03:07:35;;;;;;;31.63;13.13;;;;;;;;;;5041842;28;20521;-75
2021/12/26 03:10:01;;;;;;;34.75;14.68;;;;;;;;;;5063430;28;20028;-75
2021/12/26 03:12:29;;;;;;;36.60;14.70;;;;;;;;;;5058116;28;20452;-75
2021/12/26 03:14:55;;;;;;;32.88;13.57;;;;;;;;;;5057564;28;20036;-75
2021/12/26 03:17:20;;;;;;;39.92;15.13;;;;;;;;;;5063459;28;20617;-74
2021/12/26 03:19:46;;;;;;;35.47;14.00;;;;;;;;;;5062799;28;20048;-74
2021/12/26 03:22:12;;;;;;;36.70;14.82;;;;;;;;;;5056055;28;20699;-74
2021/12/26 03:24:39;;;;;;;37.60;14.25;;;;;;;;;;5062141;28;20063;-74
2021/12/26 03:27:05;;;;;;;37.60;13.68;;;;;;;;;;5060924;28;20032;-75
2021/12/26 03:29:32;;;;;;;33.22;13.65;;;;;;;;;;5047286;28;20044;-74
2021/12/26 03:31:58;;;;;;;36.10;14.57;;;;;;;;;;5040389;28;20501;-74
2021/12/26 03:34:23;;;;;;;37.42;13.95;;;;;;;;;;5037370;28;20071;-74
2021/12/26 03:36:52;;;;;;;30.95;13.27;;;;;;;;;;5041454;28;20059;-75
2021/12/26 03:39:18;;;;;;;38.08;14.45;;;;;;;;;;5042023;28;20032;-75
2021/12/26 03:41:44;;;;;;;38.72;15.02;;;;;;;;;;5054335;28;20043;-75
2021/12/26 03:44:10;;;;;;;37.10;14.73;;;;;;;;;;5050364;28;20068;-74
2021/12/26 03:46:36;;;;;;;37.08;15.65;;;;;;;;;;5036437;28;20108;-75
2021/12/26 03:49:04;;;;;;;34.30;15.15;;;;;;;;;;5024471;28;20037;-75
2021/12/26 03:51:31;;;;;;;40.95;16.23;;;;;;;;;;5031363;28;20029;-75
2021/12/26 03:53:56;;;;;;;38.78;15.20;;;;;;;;;;5021491;28;20042;-75
2021/12/26 03:56:21;;;;;;;37.88;14.73;;;;;;;;;;5020865;28;20092;-75
2021/12/26 03:58:47;;;;;;;34.42;14.38;;;;;;;;;;5021333;28;20041;-75
2021/12/26 04:01:12;;;;;;;41.60;15.82;;;;;;;;;;5018619;28;20078;-74
2021/12/26 04:03:38;;;;;;;39.50;15.32;;;;;;;;;;5027380;28;20045;-74
2021/12/26 04:06:03;;;;;;;42.10;15.18;;;;;;;;;;5027567;28;20188;-75
2021/12/26 04:08:29;;;;;;;35.30;13.57;;;;;;;;;;5009228;28;20045;-74
2021/12/26 04:10:55;;;;;;;40.85;15.35;;;;;;;;;;5021138;28;20033;-74
2021/12/26 04:13:20;;;;;;;40.65;17.60;;;;;;;;;;5019975;28;20057;-75
2021/12/26 04:15:46;;;;;;;38.22;15.85;;;;;;;;;;5022704;28;20041;-75
2021/12/26 04:18:11;;;;;;;37.40;14.60;;;;;;;;;;5019205;28;20041;-74
2021/12/26 04:20:37;;;;;;;37.17;13.95;;;;;;;;;;5023992;28;20034;-75
2021/12/26 04:23:02;;;;;;;30.17;12.10;;;;;;;;;;5023408;28;20044;-75
2021/12/26 04:25:28;;;;;;;32.95;13.43;;;;;;;;;;5028023;28;20037;-74
2021/12/26 04:27:54;;;;;;;36.05;13.75;;;;;;;;;;5022068;28;20032;-74
2021/12/26 04:30:21;;;;;;;45.60;15.95;;;;;;;;;;5016609;28;20183;-73
2021/12/26 04:32:47;;;;;;;44.35;14.45;;;;;;;;;;5002137;28;20422;-74
2021/12/26 04:35:13;;;;;;;34.95;14.02;;;;;;;;;;5021001;28;20043;-74
2021/12/26 04:37:39;;;;;;;42.05;14.48;;;;;;;;;;5023256;28;20083;-75
2021/12/26 04:40:07;;;;;;;40.50;14.32;;;;;;;;;;5018339;28;20036;-74
2021/12/26 04:42:32;;;;;;;36.90;14.10;;;;;;;;;;5022592;28;20052;-74
2021/12/26 04:44:58;;;;;;;40.00;15.25;;;;;;;;;;5020652;28;20084;-75
2021/12/26 04:47:23;;;;;;;42.15;15.18;;;;;;;;;;5028582;28;20053;-74
2021/12/26 04:49:49;;;;;;;43.72;14.95;;;;;;;;;;5048131;28;20040;-74
2021/12/26 04:52:15;;;;;;;43.92;16.63;;;;;;;;;;5059279;28;20456;-74
2021/12/26 04:54:40;;;;;;;39.45;14.95;;;;;;;;;;5042259;28;20033;-74
2021/12/26 04:57:06;;;;;;;37.60;14.55;;;;;;;;;;5045537;28;20091;-75
2021/12/26 04:59:32;;;;;;;36.85;14.77;;;;;;;;;;5050021;28;20109;-74
2021/12/26 05:01:57;;;;;;;43.33;15.20;;;;;;;;;;5042124;28;20051;-75
2021/12/26 05:04:23;;;;;;;38.55;14.93;;;;;;;;;;5042521;28;20410;-75
2021/12/26 05:06:48;;;;;;;42.45;15.77;;;;;;;;;;5039271;28;20112;-74
2021/12/26 05:09:14;;;;;;;42.88;14.93;;;;;;;;;;5022374;28;20089;-74
2021/12/26 05:11:40;;;;;;;38.67;14.90;;;;;;;;;;5023307;28;20061;-74
2021/12/26 05:14:05;;;;;;;35.05;13.77;;;;;;;;;;5046870;28;20127;-75
2021/12/26 05:16:31;;;;;;;33.22;12.82;;;;;;;;;;5033788;28;20047;-74
2021/12/26 05:18:56;;;;;;;44.72;14.10;;;;;;;;;;5017701;28;20041;-74
2021/12/26 05:21:22;;;;;;;37.15;14.00;;;;;;;;;;5022061;28;20165;-75
2021/12/26 05:23:47;;;;;;;41.67;14.43;;;;;;;;;;5043621;28;20041;-74
2021/12/26 05:26:12;;;;;;;44.38;15.30;;;;;;;;;;5043114;28;20048;-73
2021/12/26 05:28:37;;;;;;;36.45;13.35;;;;;;;;;;5027077;28;20037;-74
2021/12/26 05:31:03;;;;;;;39.00;14.88;;;;;;;;;;5055245;28;20027;-74
2021/12/26 05:33:28;;;;;;;37.25;14.85;;;;;;;;;;5052448;28;20105;-74
2021/12/26 05:35:54;;;;;;;36.97;13.77;;;;;;;;;;5055323;28;20555;-74
2021/12/26 05:38:19;;;;;;;42.88;14.63;;;;;;;;;;5052400;28;20048;-75
2021/12/26 05:40:45;;;;;;;41.63;14.32;;;;;;;;;;5053615;28;20036;-74
2021/12/26 05:43:10;;;;;;;44.58;14.88;;;;;;;;;;5065961;28;20029;-75
2021/12/26 05:45:35;;;;;;;44.13;15.63;;;;;;;;;;5062967;28;20540;-74
2021/12/26 05:48:01;;;;;;;39.88;14.48;;;;;;;;;;5041725;28;21768;-75
2021/12/26 05:50:26;;;;;;;38.97;14.32;;;;;;;;;;5047629;28;20064;-74
2021/12/26 05:52:52;;;;;;;43.83;15.10;;;;;;;;;;5046891;28;20050;-74
2021/12/26 05:55:18;;;;;;;38.85;13.77;;;;;;;;;;5043314;28;20036;-74
2021/12/26 05:57:45;;;;;;;43.38;14.00;;;;;;;;;;5059517;28;20133;-74
2021/12/26 06:00:14;;;;;;;36.90;13.70;;;;;;;;;;5054879;28;20127;-74
2021/12/26 06:02:39;;;;;;;38.90;14.77;;;;;;;;;;5063141;28;20059;-75
2021/12/26 06:05:05;;;;;;;40.53;14.80;;;;;;;;;;5052840;28;20522;-74
2021/12/26 06:07:31;;;;;;;37.70;12.90;;;;;;;;;;5056985;28;20063;-74
2021/12/26 06:09:56;;;;;;;41.17;14.48;;;;;;;;;;5049972;28;20072;-75
2021/12/26 06:12:22;;;;;;;39.17;13.70;;;;;;;;;;5047993;28;20033;-74
2021/12/26 06:14:47;;;;;;;38.25;15.35;;;;;;;;;;5056670;28;20072;-74
2021/12/26 06:17:13;;;;;;;41.20;15.13;;;;;;;;;;5044271;28;20168;-74
2021/12/26 06:19:38;;;;;;;40.58;14.98;;;;;;;;;;5036090;28;20548;-75
2021/12/26 06:22:06;;;;;;;40.47;14.32;;;;;;;;;;5050404;28;20029;-75
2021/12/26 06:24:32;;;;;;;40.17;14.27;;;;;;;;;;5041654;28;20403;-75
2021/12/26 06:26:57;;;;;;;40.25;14.55;;;;;;;;;;5038795;28;20508;-74
2021/12/26 06:29:22;;;;;;;40.78;14.80;;;;;;;;;;5041769;28;20107;-74
2021/12/26 06:31:48;;;;;;;46.13;15.23;;;;;;;;;;5047786;28;20045;-74
2021/12/26 06:34:14;;;;;;;40.95;15.05;;;;;;;;;;5058995;28;20051;-74
2021/12/26 06:36:39;;;;;;;42.05;14.05;;;;;;;;;;5060433;28;20032;-74
2021/12/26 06:39:05;;;;;;;39.95;14.93;;;;;;;;;;5059713;28;20165;-75
2021/12/26 06:41:30;;;;;;;43.92;16.15;;;;;;;;;;5059648;28;20402;-74
2021/12/26 06:43:55;;;;;;;37.42;13.13;;;;;;;;;;5057579;28;20036;-74
2021/12/26 06:46:21;;;;;;;42.33;16.20;;;;;;;;;;5058385;28;20040;-75
2021/12/26 06:48:47;;;;;;;40.45;14.20;;;;;;;;;;5041693;28;20028;-74
2021/12/26 06:51:12;;;;;;;39.58;14.07;;;;;;;;;;5044456;28;20110;-74
2021/12/26 06:53:37;;;;;;;41.92;14.20;;;;;;;;;;5020444;28;20067;-74
2021/12/26 06:56:03;;;;;;;37.45;14.02;;;;;;;;;;5038619;28;20029;-75
2021/12/26 06:58:29;;;;;;;41.10;14.77;;;;;;;;;;5044748;28;20029;-74
2021/12/26 07:00:54;;;;;;;39.92;15.15;;;;;;;;;;5036622;28;20030;-75
2021/12/26 07:03:19;;;;;;;35.88;13.90;;;;;;;;;;5027377;28;20059;-75
2021/12/26 07:05:45;;;;;;;39.10;14.88;;;;;;;;;;5008023;28;20045;-74
2021/12/26 07:08:10;;;;;;;41.60;14.82;;;;;;;;;;5044027;28;20029;-74
2021/12/26 07:10:36;;;;;;;44.42;15.40;;;;;;;;;;5019555;28;20505;-74
2021/12/26 07:13:01;;;;;;;37.25;14.10;;;;;;;;;;5022201;28;20517;-74
2021/12/26 07:15:27;;;;;;;39.88;14.52;;;;;;;;;;5016478;28;20022;-74
2021/12/26 07:17:52;;;;;;;37.45;13.02;;;;;;;;;;5029468;28;20526;-75
2021/12/26 07:20:18;;;;;;;40.38;13.75;;;;;;;;;;5024456;28;20056;-75
2021/12/26 07:22:46;;;;;;;42.33;14.85;;;;;;;;;;5045080;28;20029;-74
2021/12/26 07:25:12;;;;;;;39.38;13.70;;;;;;;;;;5039811;28;20036;-74
2021/12/26 07:27:37;;;;;;;45.72;15.50;;;;;;;;;;5043826;28;20483;-75
2021/12/26 07:30:04;;;;;;;43.30;14.50;;;;;;;;;;5039462;28;20055;-75
2021/12/26 07:32:31;;;;;;;38.97;14.02;;;;;;;;;;5044631;28;20609;-75
2021/12/26 07:34:57;;;;;;;39.30;14.57;;;;;;;;;;5047755;28;20040;-75
2021/12/26 07:37:23;;;;;;;43.58;15.05;;;;;;;;;;5039056;28;20033;-74
2021/12/26 07:39:48;;;;;;;39.42;14.05;;;;;;;;;;5039840;28;20776;-74
2021/12/26 07:42:14;;;;;;;62.03;20.75;;;;;;;;;;5036759;28;20036;-74
2021/12/26 07:44:39;;;;;;;46.22;16.17;;;;;;;;;;5039073;28;20053;-77
2021/12/26 07:47:05;;;;;;;39.17;14.73;;;;;;;;;;5041636;28;20071;-75
2021/12/26 07:49:31;;;;;;;38.08;14.02;;;;;;;;;;5041975;28;20040;-74
2021/12/26 07:51:57;;;;;;;41.63;14.10;;;;;;;;;;5038604;28;20029;-75
2021/12/26 07:54:24;;;;;;;39.10;14.73;;;;;;;;;;5059737;28;20692;-75
2021/12/26 07:56:51;;;;;;;34.80;12.77;;;;;;;;;;5059769;28;20048;-75
2021/12/26 07:59:16;;;;;;;39.75;13.80;;;;;;;;;;5056598;28;20029;-75
2021/12/26 08:01:42;;;;;;;36.22;13.85;;;;;;;;;;5040241;28;20043;-75
2021/12/26 08:04:12;;;;;;;38.40;14.38;;;;;;;;;;5050258;28;20157;-75
2021/12/26 08:06:38;;;;;;;37.53;14.25;;;;;;;;;;5045537;28;20544;-75
2021/12/26 08:09:06;;;;;;;39.92;14.68;;;;;;;;;;5066053;28;20030;-75
2021/12/26 08:11:31;;;;;;;39.88;14.15;;;;;;;;;;5066221;28;20044;-75
2021/12/26 08:13:57;;;;;;;37.55;13.80;;;;;;;;;;5064088;28;20044;-75
2021/12/26 08:16:22;;;;;;;43.00;15.80;;;;;;;;;;5061097;28;20036;-75
2021/12/26 08:18:48;;;;;;;40.95;15.43;;;;;;;;;;5063748;28;20093;-75
2021/12/26 08:21:13;;;;;;;35.05;13.98;;;;;;;;;;5059060;28;20028;-75
2021/12/26 08:23:38;;;;;;;34.97;13.32;;;;;;;;;;5053342;28;20417;-75
2021/12/26 08:26:04;;;;;;;37.88;14.05;;;;;;;;;;5053672;28;20135;-75
2021/12/26 08:28:30;;;;;;;39.63;14.35;;;;;;;;;;5043938;28;20047;-75
2021/12/26 08:30:56;;;;;;;42.28;13.40;;;;;;;;;;5054135;28;20095;-75
2021/12/26 08:33:21;;;;;;;36.40;13.98;;;;;;;;;;5052763;28;20028;-74
2021/12/26 08:35:48;;;;;;;42.95;13.88;;;;;;;;;;5034246;28;20048;-74
2021/12/26 08:38:16;;;;;;;37.58;13.23;;;;;;;;;;5033137;28;20067;-74
2021/12/26 08:40:42;;;;;;;37.78;14.73;;;;;;;;;;5034417;28;20038;-74
2021/12/26 08:43:08;;;;;;;41.90;15.38;;;;;;;;;;5041547;28;20025;-74
2021/12/26 08:45:33;;;;;;;38.90;14.75;;;;;;;;;;5039952;28;20028;-74
2021/12/26 08:48:01;;;;;;;33.63;13.02;;;;;;;;;;5040014;28;20041;-74
2021/12/26 08:50:27;;;;;;;34.90;13.90;;;;;;;;;;5039519;28;20037;-74
2021/12/26 08:52:53;;;;;;;44.85;18.08;;;;;;;;;;5041006;28;20049;-74
2021/12/26 08:55:19;;;;;;;43.25;17.45;;;;;;;;;;5039874;28;20679;-74
2021/12/26 08:57:46;;;;;;;36.17;14.98;;;;;;;;;;5038209;28;20036;-74
2021/12/26 09:00:12;;;;;;;37.38;14.88;;;;;;;;;;5030917;28;20037;-74
2021/12/26 09:02:37;;;;;;;39.55;15.90;;;;;;;;;;5030790;28;20039;-74
2021/12/26 09:05:03;;;;;;;48.40;17.92;;;;;;;;;;5027158;28;20041;-74
2021/12/26 09:07:29;;;;;;;46.40;16.80;;;;;;;;;;5034352;28;20047;-74
2021/12/26 09:09:55;;;;;;;45.47;17.33;;;;;;;;;;5056104;28;20032;-74
2021/12/26 09:12:21;;;;;;;40.35;15.00;;;;;;;;;;5054925;28;20052;-74
2021/12/26 09:14:47;;;;;;;41.15;15.40;;;;;;;;;;5053737;28;20409;-73
2021/12/26 09:17:12;;;;;;;42.28;15.93;;;;;;;;;;5054037;28;20171;-71
2021/12/26 09:19:37;;;;;;;43.65;16.98;;;;;;;;;;5052830;28;20056;-76
2021/12/26 09:22:06;;;;;;;41.63;14.65;;;;;;;;;;5054139;28;21257;-76
2021/12/26 09:24:31;;;;;;;35.30;14.88;;;;;;;;;;5056762;28;20065;-76
2021/12/26 09:26:57;;;;;;;38.28;14.52;;;;;;;;;;5062648;28;20040;-77
2021/12/26 09:29:22;;;;;;;40.50;14.50;;;;;;;;;;5050917;28;20098;-71
2021/12/26 09:31:48;;;;;;;39.95;14.27;;;;;;;;;;5038389;28;20041;-76
2021/12/26 09:34:14;;;;;;;37.45;13.80;;;;;;;;;;5039520;28;20021;-76
2021/12/26 09:36:40;;;;;;;35.80;15.48;;;;;;;;;;5040988;28;20414;-76
2021/12/26 09:39:06;;;;;;;35.85;13.15;;;;;;;;;;5041117;28;20036;-77
2021/12/26 09:41:31;;;;;;;36.83;13.85;;;;;;;;;;5045752;28;20064;-77
2021/12/26 09:43:57;;;;;;;42.97;16.15;;;;;;;;;;5045372;28;20047;-77
2021/12/26 09:46:22;;;;;;;33.15;13.40;;;;;;;;;;5036502;28;20060;-76
2021/12/26 09:48:48;;;;;;;33.28;13.90;;;;;;;;;;5020054;28;20039;-77
2021/12/26 09:51:13;;;;;;;32.42;12.27;;;;;;;;;;5035413;28;20074;-76
2021/12/26 09:53:40;;;;;;;27.40;10.35;;;;;;;;;;5037126;28;20041;-76
2021/12/26 09:56:07;;;;;;;32.17;11.35;;;;;;;;;;5041877;28;20045;-76
2021/12/26 09:58:34;;;;;;;25.23;11.40;;;;;;;;;;5038542;28;20037;-77
2021/12/26 10:01:00;;;;;;;25.27;11.57;;;;;;;;;;5043609;28;20116;-77
2021/12/26 10:03:33;;;;;;;29.75;11.23;;;;;;;;;;5032802;28;20100;-76
2021/12/26 10:06:12;;;;;;;25.75;10.32;;;;;;;;;;5036710;28;20042;-77
2021/12/26 10:08:56;;;;;;;26.05;9.38;;;;;;;;;;5032845;28;20045;-76
2021/12/26 10:11:22;;;;;;;;;;;;;;;;;;5034908;28;20045;-76
2021/12/26 10:13:53;;;;;;;22.15;8.35;;;;;;;;;;5034828;28;19932;-76
2021/12/26 10:16:21;;;;;;;20.48;7.50;;;;;;;;;;5035478;28;20037;-76
2021/12/26 10:18:47;;;;;;;17.60;7.43;;;;;;;;;;5033086;28;20052;-76
2021/12/26 10:21:37;;;;;;;19.73;7.90;;;;;;;;;;5028558;28;20680;-76
2021/12/26 10:24:07;;;;;;;17.30;7.18;;;;;;;;;;5036063;28;20037;-76
2021/12/26 10:26:36;;;;;;;19.02;8.05;;;;;;;;;;5038644;28;20040;-76
2021/12/26 10:29:21;;;;;;;17.58;7.07;;;;;;;;;;5036341;28;20122;-77
2021/12/26 10:32:08;;;;;;;19.13;7.53;;;;;;;;;;5034668;28;22055;-76
2021/12/26 10:34:49;;;;;;;17.10;7.18;;;;;;;;;;5035938;28;20056;-77
2021/12/26 10:37:24;;;;;;;14.90;7.22;;;;;;;;;;5036967;28;20047;-76
2021/12/26 10:39:53;;;;;;;14.30;7.13;;;;;;;;;;5044357;28;20079;-76
2021/12/26 10:42:26;;;;;;;15.02;6.63;;;;;;;;;;5040409;28;20040;-79
2021/12/26 10:44:54;;;;;;;17.08;6.47;;;;;;;;;;5033584;28;20035;-77
2021/12/26 10:47:25;;;;;;;13.10;6.25;;;;;;;;;;5044489;28;20055;-78
2021/12/26 10:49:59;;;;;;;13.90;6.00;;;;;;;;;;5054045;28;20051;-78
2021/12/26 10:52:27;;;;;;;12.57;6.03;;;;;;;;;;5038652;28;20523;-78
2021/12/26 10:55:04;;;;;;;14.05;6.25;;;;;;;;;;5041977;28;20472;-78
2021/12/26 10:57:36;;;;;;;10.88;5.82;;;;;;;;;;5057102;28;20047;-76
2021/12/26 11:00:11;;;;;;;15.23;5.72;;;;;;;;;;5041986;28;20044;-78
2021/12/26 11:02:37;;;;;;;15.50;6.07;;;;;;;;;;5038835;28;20053;-79
2021/12/26 11:05:07;;;;;;;13.68;5.97;;;;;;;;;;5031379;28;20037;-79
2021/12/26 11:07:46;;;;;;;11.05;5.20;;;;;;;;;;5028628;28;20505;-78
2021/12/26 11:10:32;;;;;;;12.73;5.35;;;;;;;;;;5037907;28;20055;-78
2021/12/26 11:13:01;;;;;;;10.02;5.45;;;;;;;;;;5027316;28;20021;-78
2021/12/26 11:15:29;;;;;;;13.68;5.90;;;;;;;;;;5041893;28;20021;-79
2021/12/26 11:17:58;;;;;;;12.57;5.95;;;;;;;;;;5038002;28;20132;-76
2021/12/26 11:20:27;;;;;;;12.68;5.50;;;;;;;;;;5037225;28;20042;-78
2021/12/26 11:22:53;;;;;;;10.27;4.78;;;;;;;;;;5032457;28;20099;-78
2021/12/26 11:25:19;;;;;;;11.15;5.18;;;;;;;;;;5031251;28;20580;-78
2021/12/26 11:27:44;;;;;;;11.60;5.72;;;;;;;;;;5030900;28;20498;-78
2021/12/26 11:30:10;;;;;;;13.63;6.00;;;;;;;;;;5032167;28;20116;-77
2021/12/26 11:32:36;;;;;;;15.35;6.28;;;;;;;;;;5025730;28;20029;-79
2021/12/26 11:35:04;;;;;;;14.70;5.60;;;;;;;;;;5012992;28;20029;-78
2021/12/26 11:37:30;;;;;;;12.35;6.68;;;;;;;;;;5026607;28;20596;-78
2021/12/26 11:39:57;;;;;;;13.15;6.38;;;;;;;;;;5026791;28;20033;-77
2021/12/26 11:42:56;;;;;;;11.90;6.93;;;;;;;;;;5028917;28;20028;-78
2021/12/26 11:45:30;;;;;;;14.57;6.55;;;;;;;;;;5029134;28;20068;-78
2021/12/26 11:48:24;;;;;;;13.18;6.22;;;;;;;;;;5028515;28;20787;-78
2021/12/26 11:50:56;;;;;;;;;;;;;;;;;;5026429;28;20144;-77
2021/12/26 11:53:45;;;;;;;14.82;6.07;;;;;;;;;;5030038;28;19928;-78
2021/12/26 11:56:17;;;;;;;12.55;6.28;;;;;;;;;;5044144;28;20028;-78
2021/12/26 11:58:45;;;;;;;10.50;5.93;;;;;;;;;;5054189;28;20434;-78
2021/12/26 12:01:17;;;;;;;14.88;6.20;;;;;;;;;;5058197;28;20024;-78
2021/12/26 12:03:43;;;;;;;12.00;5.88;;;;;;;;;;5052460;28;20544;-76
2021/12/26 12:06:23;;;;;;;13.23;7.28;;;;;;;;;;5054298;28;20040;-78
2021/12/26 12:08:48;;;;;;;17.98;7.63;;;;;;;;;;5053933;28;20037;-77
2021/12/26 12:11:13;;;;;;;17.88;8.07;;;;;;;;;;5052512;28;20133;-76
2021/12/26 12:13:39;;;;;;;15.48;7.30;;;;;;;;;;5055014;28;20075;-76
2021/12/26 12:16:09;;;;;;;15.05;6.90;;;;;;;;;;5052147;28;20183;-75
2021/12/26 12:18:38;;;;;;;15.35;7.20;;;;;;;;;;5053183;28;20171;-76
2021/12/26 12:21:20;;;;;;;17.40;7.43;;;;;;;;;;5054865;28;20518;-76
2021/12/26 12:24:38;;;;;;;13.98;6.07;;;;;;;;;;5051971;28;20071;-76
2021/12/26 12:27:09;;;;;;;12.45;6.07;;;;;;;;;;4981254;28;20866;-76
2021/12/26 12:29:52;;;;;;;12.40;6.03;;;;;;;;;;4982616;28;20065;-76
2021/12/26 12:32:23;;;;;;;13.77;7.03;;;;;;;;;;5013927;28;20101;-75
2021/12/26 12:34:55;;;;;;;17.13;8.38;;;;;;;;;;5045358;28;20134;-76
2021/12/26 12:37:38;;;;;;;17.70;8.88;;;;;;;;;;5057699;28;20044;-76
2021/12/26 12:40:17;;;;;;;17.00;6.93;;;;;;;;;;5055544;28;20518;-76
2021/12/26 12:43:09;;;;;;;12.52;6.35;;;;;;;;;;5054863;28;20020;-76
2021/12/26 12:46:05;;;;;;;15.85;6.55;;;;;;;;;;5036179;28;20045;-76
2021/12/26 12:48:38;;;;;;;15.82;6.50;;;;;;;;;;5003795;28;20057;-76
2021/12/26 12:51:26;;;;;;;15.40;6.07;;;;;;;;;;5017269;28;20443;-75
2021/12/26 12:54:04;;;;;;;15.18;7.07;;;;;;;;;;5019532;28;20045;-75
2021/12/26 12:56:29;;;;;;;18.92;8.07;;;;;;;;;;5036071;28;20052;-76
2021/12/26 12:59:16;;;;;;;12.50;6.63;;;;;;;;;;5042233;28;20044;-75
2021/12/26 13:01:58;;;;;;;10.88;6.40;;;;;;;;;;5038652;28;20717;-75
2021/12/26 13:04:27;;;;;;;13.50;6.78;;;;;;;;;;5040727;28;20135;-75
2021/12/26 13:06:55;;;;;;;16.58;6.75;;;;;;;;;;5039020;28;20094;-75
2021/12/26 13:09:22;;;;;;;14.02;7.78;;;;;;;;;;5039529;28;20398;-76
2021/12/26 13:11:51;;;;;;;14.27;7.53;;;;;;;;;;5044193;28;20048;-76
2021/12/26 13:14:37;;;;;;;12.93;6.95;;;;;;;;;;5028767;28;20132;-76
2021/12/26 13:17:03;;;;;;;11.88;6.53;;;;;;;;;;5030595;28;20894;-76
2021/12/26 13:19:31;;;;;;;15.35;7.03;;;;;;;;;;5034726;28;20047;-76
2021/12/26 13:21:58;;;;;;;13.93;7.55;;;;;;;;;;5036585;28;20506;-75
2021/12/26 13:24:35;;;;;;;13.50;6.95;;;;;;;;;;5035511;28;20036;-75
2021/12/26 13:27:00;;;;;;;12.43;6.65;;;;;;;;;;5040566;28;20063;-76
2021/12/26 13:29:26;;;;;;;15.80;7.40;;;;;;;;;;5026618;28;20454;-76
2021/12/26 13:31:52;;;;;;;18.80;8.10;;;;;;;;;;5028959;28;20032;-76
2021/12/26 13:34:18;;;;;;;14.27;7.45;;;;;;;;;;5019995;28;20087;-75
2021/12/26 13:36:43;;;;;;;13.90;6.25;;;;;;;;;;5036041;28;20039;-75
2021/12/26 13:39:20;;;;;;;16.27;6.57;;;;;;;;;;5041321;28;20040;-76
2021/12/26 13:41:47;;;;;;;12.25;6.32;;;;;;;;;;5043108;28;20063;-76
2021/12/26 13:44:13;;;;;;;10.70;6.03;;;;;;;;;;5039314;28;20065;-75
2021/12/26 13:46:39;;;;;;;14.05;7.45;;;;;;;;;;5021803;28;20116;-75
2021/12/26 13:49:10;;;;;;;15.23;7.57;;;;;;;;;;5036136;28;20140;-75
2021/12/26 13:51:39;;;;;;;14.45;7.38;;;;;;;;;;5018289;28;20025;-75
2021/12/26 13:54:20;;;;;;;14.38;6.85;;;;;;;;;;5032351;28;20047;-75
2021/12/26 13:56:59;;;;;;;14.60;7.38;;;;;;;;;;5029226;28;20041;-76
2021/12/26 13:59:42;;;;;;;14.65;7.65;;;;;;;;;;5014264;28;20415;-75
2021/12/26 14:02:09;;;;;;;14.20;7.38;;;;;;;;;;5007522;28;20033;-75
2021/12/26 14:04:49;;;;;;;13.80;7.35;;;;;;;;;;5013485;28;20064;-77
2021/12/26 14:07:17;;;;;;;18.63;7.95;;;;;;;;;;5010385;28;20064;-75
2021/12/26 14:09:48;;;;;;;15.65;8.50;;;;;;;;;;5014145;28;20037;-75
2021/12/26 14:12:36;;;;;;;19.85;9.27;;;;;;;;;;5011164;28;20041;-76
2021/12/26 14:15:31;;;;;;;19.58;9.40;;;;;;;;;;5011119;28;20041;-75
2021/12/26 14:18:06;;;;;;;20.00;9.05;;;;;;;;;;5003940;28;20042;-80
2021/12/26 14:20:51;;;;;;;23.42;10.25;;;;;;;;;;5007961;28;20033;-82
2021/12/26 14:23:28;;;;;;;26.42;10.40;;;;;;;;;;5007200;28;20037;-85
2021/12/26 14:25:58;;;;;;;19.38;8.98;;;;;;;;;;4998182;28;20103;-80
2021/12/26 14:28:24;;;;;;;19.65;8.30;;;;;;;;;;5003357;28;21240;-79
2021/12/26 14:30:54;;;;;;;16.27;8.45;;;;;;;;;;5021420;28;20079;-77